createdAt,value
2022-08-21T00:01:16.010Z,12.00
2022-08-21T00:03:43.554Z,7.57
2022-08-21T00:06:15.713Z,10.95
2022-08-21T00:08:43.450Z,8.85
2022-08-21T00:11:14.367Z,8.80
2022-08-21T00:13:42.369Z,8.48
2022-08-21T00:16:10.268Z,8.45
2022-08-21T00:18:40.115Z,6.97
2022-08-21T00:21:07.198Z,8.38
2022-08-21T00:23:36.728Z,9.95
2022-08-21T00:26:04.231Z,6.60
2022-08-21T00:28:34.415Z,9.32
2022-08-21T00:31:06.926Z,11.23
2022-08-21T00:33:37.166Z,8.57
2022-08-21T00:36:06.607Z,6.80
2022-08-21T00:38:34.468Z,6.82
2022-08-21T00:41:10.257Z,6.00
2022-08-21T00:43:57.647Z,10.77
2022-08-21T00:46:28.448Z,10.73
2022-08-21T00:48:58.930Z,12.15
2022-08-21T00:51:44.357Z,10.75
2022-08-21T00:54:19.339Z,8.50
2022-08-21T00:56:53.681Z,10.13
2022-08-21T00:59:26.548Z,7.20
2022-08-21T01:01:57.005Z,8.27
2022-08-21T01:04:26.552Z,8.82
2022-08-21T01:06:55.921Z,11.85
2022-08-21T01:09:25.442Z,8.60
2022-08-21T01:11:52.903Z,9.80
2022-08-21T01:14:22.815Z,4.93
2022-08-21T01:16:57.209Z,10.20
2022-08-21T01:19:28.213Z,5.75
2022-08-21T01:22:03.217Z,13.15
2022-08-21T01:24:33.339Z,6.93
2022-08-21T01:27:02.290Z,11.27
2022-08-21T01:29:48.974Z,11.03
2022-08-21T01:32:22.787Z,10.20
2022-08-21T01:34:52.187Z,13.90
2022-08-21T01:37:23.634Z,7.47
2022-08-21T01:39:51.007Z,13.80
2022-08-21T01:42:20.795Z,12.30
2022-08-21T01:44:50.475Z,13.25
2022-08-21T01:47:27.744Z,15.32
2022-08-21T01:50:02.505Z,12.63
2022-08-21T01:52:32.094Z,11.57
2022-08-21T01:55:02.192Z,8.68
2022-08-21T01:57:29.439Z,11.60
2022-08-21T01:59:59.551Z,12.60
2022-08-21T02:02:29.474Z,12.63
2022-08-21T02:04:58.926Z,14.85
2022-08-21T02:07:28.792Z,11.77
2022-08-21T02:09:58.025Z,9.95
2022-08-21T02:12:27.370Z,16.70
2022-08-21T02:14:57.346Z,17.05
2022-08-21T02:17:27.082Z,10.27
2022-08-21T02:19:54.248Z,19.70
2022-08-21T02:22:21.511Z,15.05
2022-08-21T02:24:55.041Z,10.82
2022-08-21T02:29:57.289Z,12.67
2022-08-21T02:32:31.904Z,12.10
2022-08-21T02:34:59.190Z,13.13
2022-08-21T02:37:26.566Z,17.85
2022-08-21T02:40:03.958Z,13.68
2022-08-21T02:42:33.550Z,13.82
2022-08-21T02:45:00.846Z,17.50
2022-08-21T02:47:32.539Z,10.35
2022-08-21T02:49:59.701Z,18.52
2022-08-21T02:52:29.290Z,13.10
2022-08-21T02:57:28.846Z,19.40
2022-08-21T02:59:58.355Z,10.02
2022-08-21T03:04:59.834Z,11.07
2022-08-21T03:07:31.777Z,15.85
2022-08-21T03:10:05.708Z,12.57
2022-08-21T03:12:36.422Z,13.67
2022-08-21T03:15:08.497Z,13.77
2022-08-21T03:17:40.713Z,14.32
2022-08-21T03:20:13.099Z,15.88
2022-08-21T03:22:48.526Z,12.88
2022-08-21T03:25:33.723Z,11.20
2022-08-21T03:28:18.383Z,14.88
2022-08-21T03:30:48.409Z,15.73
2022-08-21T03:33:23.727Z,12.60
2022-08-21T03:36:05.597Z,10.05
2022-08-21T03:38:35.018Z,15.65
2022-08-21T03:41:06.781Z,11.20
2022-08-21T03:43:37.612Z,12.15
2022-08-21T03:46:10.393Z,8.40
2022-08-21T03:48:45.490Z,10.57
2022-08-21T03:51:15.921Z,12.57
2022-08-21T03:53:45.877Z,11.10
2022-08-21T03:56:17.750Z,11.95
2022-08-21T03:58:49.741Z,6.75
2022-08-21T04:01:17.164Z,9.35
2022-08-21T04:03:46.502Z,11.05
2022-08-21T04:06:13.882Z,9.05
2022-08-21T04:08:50.835Z,10.73
2022-08-21T04:11:20.346Z,6.90
2022-08-21T04:13:47.837Z,7.40
2022-08-21T04:16:15.254Z,11.13
2022-08-21T04:18:47.425Z,11.32
2022-08-21T04:21:16.675Z,10.68
2022-08-21T04:23:46.753Z,14.60
2022-08-21T04:26:13.962Z,8.98
2022-08-21T04:28:47.752Z,15.32
2022-08-21T04:31:15.521Z,12.77
2022-08-21T04:33:42.735Z,8.43
2022-08-21T04:36:12.718Z,9.32
2022-08-21T04:38:44.881Z,8.98
2022-08-21T04:41:14.972Z,9.55
2022-08-21T04:43:45.359Z,8.43
2022-08-21T04:46:15.345Z,11.85
2022-08-21T04:48:49.479Z,13.93
2022-08-21T04:51:31.129Z,10.65
2022-08-21T04:54:29.954Z,8.98
2022-08-21T04:57:04.681Z,8.05
2022-08-21T04:59:37.555Z,7.72
2022-08-21T05:02:09.757Z,10.77
2022-08-21T05:07:15.606Z,13.90
2022-08-21T05:09:48.548Z,9.52
2022-08-21T05:12:20.631Z,8.27
2022-08-21T05:14:50.366Z,10.95
2022-08-21T05:17:20.043Z,5.75
2022-08-21T05:19:49.593Z,13.77
2022-08-21T05:22:25.458Z,8.20
2022-08-21T05:24:55.039Z,10.43
2022-08-21T05:27:22.485Z,15.68
2022-08-21T05:29:55.416Z,8.95
2022-08-21T05:32:26.384Z,8.63
2022-08-21T05:34:53.465Z,11.35
2022-08-21T05:37:20.603Z,9.35
2022-08-21T05:40:04.963Z,25.08
2022-08-21T05:42:35.414Z,10.95
2022-08-21T05:45:05.423Z,11.32
2022-08-21T05:47:40.558Z,13.10
2022-08-21T05:50:08.359Z,11.02
2022-08-21T05:52:35.518Z,10.88
2022-08-21T05:55:07.696Z,9.82
2022-08-21T05:57:37.629Z,10.25
2022-08-21T06:00:05.763Z,12.65
2022-08-21T06:02:42.441Z,11.07
2022-08-21T06:05:12.030Z,7.07
2022-08-21T06:10:13.894Z,13.57
2022-08-21T06:12:48.332Z,14.13
2022-08-21T06:15:18.261Z,10.93
2022-08-21T06:17:45.354Z,17.00
2022-08-21T06:20:14.780Z,7.53
2022-08-21T06:22:46.978Z,11.00
2022-08-21T06:25:16.451Z,9.73
2022-08-21T06:27:46.992Z,11.77
2022-08-21T06:30:16.402Z,11.23
2022-08-21T06:32:45.974Z,14.88
2022-08-21T06:35:20.563Z,9.70
2022-08-21T06:37:50.003Z,12.75
2022-08-21T06:40:22.563Z,8.65
2022-08-21T06:42:55.885Z,8.88
2022-08-21T06:45:28.410Z,6.95
2022-08-21T06:48:00.489Z,8.02
2022-08-21T06:50:31.267Z,7.75
2022-08-21T06:53:10.836Z,5.88
2022-08-21T06:55:41.378Z,13.88
2022-08-21T06:58:11.626Z,13.45
2022-08-21T07:00:49.945Z,15.50
2022-08-21T07:03:29.174Z,8.48
2022-08-21T07:05:59.314Z,12.07
2022-08-21T07:08:30.693Z,9.52
2022-08-21T07:11:10.766Z,8.30
2022-08-21T07:13:37.923Z,11.57
2022-08-21T07:16:05.643Z,6.65
2022-08-21T07:18:32.929Z,11.77
2022-08-21T07:21:04.730Z,8.13
2022-08-21T07:23:36.037Z,14.80
2022-08-21T07:26:03.246Z,6.50
2022-08-21T07:28:37.184Z,17.85
2022-08-21T07:31:07.386Z,8.82
2022-08-21T07:33:36.398Z,6.53
2022-08-21T07:36:06.631Z,8.77
2022-08-21T07:38:33.943Z,6.53
2022-08-21T07:41:02.651Z,4.43
2022-08-21T07:43:33.063Z,3.75
2022-08-21T07:46:06.165Z,6.53
2022-08-21T07:48:34.520Z,7.60
2022-08-21T07:51:09.841Z,4.93
2022-08-21T07:53:42.530Z,3.97
2022-08-21T07:56:13.164Z,6.78
2022-08-21T07:58:40.568Z,4.80
2022-08-21T08:01:07.965Z,10.63
2022-08-21T08:03:35.823Z,5.35
2022-08-21T08:06:06.057Z,6.82
2022-08-21T08:08:33.822Z,7.10
2022-08-21T08:11:03.574Z,4.30
2022-08-21T08:13:31.043Z,7.10
2022-08-21T08:16:00.262Z,6.35
2022-08-21T08:21:04.479Z,7.45
2022-08-21T08:23:32.798Z,5.18
2022-08-21T08:26:01.082Z,6.60
2022-08-21T08:28:28.345Z,8.68
2022-08-21T08:30:57.738Z,8.25
2022-08-21T08:33:28.454Z,6.88
2022-08-21T08:36:04.681Z,4.20
2022-08-21T08:38:38.343Z,4.68
2022-08-21T08:41:20.754Z,5.60
2022-08-21T08:43:54.778Z,4.57
2022-08-21T08:46:43.133Z,9.48
2022-08-21T08:50:03.320Z,6.70
2022-08-21T08:52:43.611Z,10.07
2022-08-21T08:55:27.324Z,10.32
2022-08-21T08:57:58.593Z,3.15
2022-08-21T09:00:26.697Z,10.90
2022-08-21T09:02:56.722Z,9.10
2022-08-21T09:05:40.890Z,7.82
2022-08-21T09:08:27.376Z,4.28
2022-08-21T09:10:54.599Z,4.22
2022-08-21T09:13:52.500Z,4.47
2022-08-21T09:16:53.334Z,4.20
2022-08-21T09:19:51.915Z,9.88
2022-08-21T09:22:35.917Z,7.60
2022-08-21T09:25:25.023Z,11.77
2022-08-21T09:27:55.026Z,6.55
2022-08-21T09:30:31.733Z,8.40
2022-08-21T09:33:01.463Z,5.20
2022-08-21T09:35:38.227Z,3.95
2022-08-21T09:38:10.777Z,5.28
2022-08-21T09:40:50.237Z,4.95
2022-08-21T09:43:23.911Z,7.78
2022-08-21T09:46:11.045Z,4.43
2022-08-21T09:48:48.826Z,4.10
2022-08-21T09:51:23.325Z,10.43
2022-08-21T09:54:00.531Z,4.97
2022-08-21T09:56:56.789Z,7.40
2022-08-21T09:59:36.689Z,13.35
2022-08-21T10:02:32.560Z,9.05
2022-08-21T10:05:27.004Z,5.75
2022-08-21T10:07:57.083Z,8.57
2022-08-21T10:10:33.163Z,5.93
2022-08-21T10:13:19.223Z,11.93
2022-08-21T10:16:06.913Z,4.20
2022-08-21T10:18:50.613Z,6.30
2022-08-21T10:21:23.741Z,9.02
2022-08-21T10:24:02.010Z,3.55
2022-08-21T10:26:58.729Z,5.38
2022-08-21T10:30:04.671Z,6.60
2022-08-21T10:33:08.095Z,9.38
2022-08-21T10:35:43.636Z,6.88
2022-08-21T10:38:28.176Z,4.63
2022-08-21T10:41:11.657Z,4.53
2022-08-21T10:43:59.571Z,6.25
2022-08-21T10:47:00.520Z,4.75
2022-08-21T10:49:46.346Z,8.98
2022-08-21T10:52:34.698Z,4.60
2022-08-21T10:55:18.115Z,3.40
2022-08-21T10:58:16.222Z,3.83
2022-08-21T11:00:54.533Z,9.52
2022-08-21T11:03:39.259Z,9.15
2022-08-21T11:06:18.043Z,13.70
2022-08-21T11:08:58.366Z,3.15
2022-08-21T11:11:45.018Z,4.05
2022-08-21T11:14:35.178Z,5.13
2022-08-21T11:17:17.227Z,1.77
2022-08-21T11:20:04.769Z,6.13
2022-08-21T11:23:03.016Z,2.97
2022-08-21T11:25:37.181Z,3.72
2022-08-21T11:28:14.876Z,4.97
2022-08-21T11:31:03.286Z,8.05
2022-08-21T11:33:35.458Z,11.07
2022-08-21T11:36:30.065Z,6.43
2022-08-21T11:39:14.549Z,7.18
2022-08-21T11:42:09.162Z,9.57
2022-08-21T11:44:54.826Z,4.75
2022-08-21T11:47:43.608Z,8.10
2022-08-21T11:50:34.303Z,6.68
2022-08-21T11:53:20.079Z,7.28
2022-08-21T11:56:09.436Z,5.15
2022-08-21T11:58:46.348Z,11.68
2022-08-21T12:01:20.742Z,5.72
2022-08-21T12:04:01.127Z,6.95
2022-08-21T12:06:42.459Z,8.93
2022-08-21T12:09:35.280Z,9.70
2022-08-21T12:12:31.978Z,5.22
2022-08-21T12:15:18.704Z,11.15
2022-08-21T12:18:19.749Z,7.07
2022-08-21T12:21:07.066Z,4.47
2022-08-21T12:24:04.623Z,7.00
2022-08-21T12:26:59.441Z,7.30
2022-08-21T12:29:37.098Z,8.25
2022-08-21T12:32:16.054Z,5.70
2022-08-21T12:35:15.579Z,5.80
2022-08-21T12:38:07.580Z,8.95
2022-08-21T12:41:03.786Z,6.60
2022-08-21T12:43:41.642Z,12.50
2022-08-21T12:46:18.593Z,5.18
2022-08-21T12:49:16.629Z,4.00
2022-08-21T12:51:57.925Z,4.15
2022-08-21T12:54:39.016Z,7.65
2022-08-21T12:57:23.966Z,6.93
2022-08-21T13:00:04.084Z,4.97
2022-08-21T13:02:40.434Z,4.70
2022-08-21T13:05:15.226Z,5.70
2022-08-21T13:07:48.063Z,6.47
2022-08-21T13:10:20.219Z,8.40
2022-08-21T13:12:51.102Z,8.77
2022-08-21T13:15:33.372Z,6.30
2022-08-21T13:18:03.575Z,8.75
2022-08-21T13:20:40.275Z,4.90
2022-08-21T13:23:28.986Z,5.82
2022-08-21T13:25:58.975Z,7.85
2022-08-21T13:28:38.603Z,6.47
2022-08-21T13:31:18.132Z,5.43
2022-08-21T13:33:45.786Z,7.55
2022-08-21T13:36:20.994Z,5.00
2022-08-21T13:38:54.490Z,6.80
2022-08-21T13:41:31.130Z,5.35
2022-08-21T13:44:21.059Z,4.65
2022-08-21T13:46:50.617Z,6.55
2022-08-21T13:49:26.636Z,3.80
2022-08-21T13:51:56.354Z,5.00
2022-08-21T13:54:35.365Z,8.75
2022-08-21T13:57:03.061Z,6.20
2022-08-21T13:59:37.103Z,5.80
2022-08-21T14:02:17.152Z,10.02
2022-08-21T14:05:01.503Z,6.35
2022-08-21T14:07:43.545Z,8.05
2022-08-21T14:10:20.446Z,3.70
2022-08-21T14:12:59.553Z,4.57
2022-08-21T14:15:33.350Z,7.13
2022-08-21T14:18:15.037Z,4.25
2022-08-21T14:20:47.737Z,6.50
2022-08-21T14:23:30.682Z,4.78
2022-08-21T14:26:05.370Z,5.35
2022-08-21T14:28:36.410Z,8.70
2022-08-21T14:31:21.325Z,4.57
2022-08-21T14:33:51.350Z,9.50
2022-08-21T14:36:20.823Z,7.32
2022-08-21T14:38:53.111Z,6.05
2022-08-21T14:41:28.654Z,4.20
2022-08-21T14:44:09.238Z,4.93
2022-08-21T14:46:54.168Z,4.75
2022-08-21T14:49:28.724Z,4.82
2022-08-21T14:52:06.379Z,8.68
2022-08-21T14:54:38.274Z,9.48
2022-08-21T14:57:13.517Z,7.45
2022-08-21T14:59:43.980Z,6.53
2022-08-21T15:02:13.661Z,4.13
2022-08-21T15:04:45.757Z,5.18
2022-08-21T15:07:15.591Z,7.90
2022-08-21T15:09:47.747Z,5.32
2022-08-21T15:12:15.794Z,10.43
2022-08-21T15:14:43.007Z,6.70
2022-08-21T15:17:13.620Z,10.95
2022-08-21T15:19:45.790Z,5.65
2022-08-21T15:22:27.801Z,8.18
2022-08-21T15:25:00.165Z,6.78
2022-08-21T15:27:33.037Z,4.93
2022-08-21T15:30:00.451Z,7.28
2022-08-21T15:32:30.251Z,10.35
2022-08-21T15:34:58.670Z,6.22
2022-08-21T15:37:33.345Z,3.78
2022-08-21T15:40:00.778Z,4.50
2022-08-21T15:42:30.865Z,4.68
2022-08-21T15:44:58.870Z,7.10
2022-08-21T15:47:39.498Z,14.40
2022-08-21T15:50:09.604Z,12.63
2022-08-21T15:52:40.074Z,12.70
2022-08-21T15:55:08.738Z,16.02
2022-08-21T15:57:39.129Z,15.10
2022-08-21T16:00:24.694Z,17.80
2022-08-21T16:02:54.748Z,20.95
2022-08-21T16:05:22.798Z,23.02
2022-08-21T16:07:52.325Z,24.20
2022-08-21T16:10:29.891Z,28.70
2022-08-21T16:13:06.197Z,27.33
2022-08-21T16:15:33.974Z,26.50
2022-08-21T16:18:03.745Z,26.65
2022-08-21T16:20:35.406Z,30.98
2022-08-21T16:23:02.772Z,33.63
2022-08-21T16:25:37.277Z,30.23
2022-08-21T16:28:16.325Z,35.75
2022-08-21T16:30:49.825Z,35.00
2022-08-21T16:33:35.223Z,41.42
2022-08-21T16:36:05.696Z,37.30
2022-08-21T16:41:13.673Z,34.13
2022-08-21T16:43:46.625Z,36.88
2022-08-21T16:46:15.582Z,33.28
2022-08-21T16:48:47.430Z,34.30
2022-08-21T16:51:17.815Z,31.90
2022-08-21T16:53:47.426Z,28.88
2022-08-21T16:56:15.839Z,33.65
2022-08-21T16:58:52.142Z,34.43
2022-08-21T17:01:26.408Z,32.92
2022-08-21T17:03:56.216Z,34.38
2022-08-21T17:06:30.306Z,36.13
2022-08-21T17:09:01.155Z,33.25
2022-08-21T17:11:47.624Z,31.90
2022-08-21T17:14:24.712Z,38.05
2022-08-21T17:16:59.259Z,30.45
2022-08-21T17:19:28.859Z,38.22
2022-08-21T17:22:00.770Z,34.40
2022-08-21T17:24:30.661Z,28.83
2022-08-21T17:27:00.849Z,30.10
2022-08-21T17:29:34.830Z,33.33
2022-08-21T17:32:08.363Z,31.92
2022-08-21T17:34:36.296Z,31.10
2022-08-21T17:37:08.566Z,26.75
2022-08-21T17:39:38.290Z,30.20
2022-08-21T17:42:13.735Z,34.92
2022-08-21T17:44:45.276Z,28.35
2022-08-21T17:47:15.718Z,33.25
2022-08-21T17:49:48.334Z,27.10
2022-08-21T17:52:17.754Z,26.10
2022-08-21T17:57:22.695Z,29.27
2022-08-21T17:59:53.273Z,23.30
2022-08-21T18:02:24.412Z,25.45
2022-08-21T18:04:56.365Z,25.08
2022-08-21T18:07:32.734Z,23.15
2022-08-21T18:10:05.907Z,30.23
2022-08-21T18:12:38.808Z,24.08
2022-08-21T18:15:07.355Z,22.98
2022-08-21T18:17:39.823Z,21.02
2022-08-21T18:20:10.344Z,19.65
2022-08-21T18:22:42.507Z,21.35
2022-08-21T18:25:13.859Z,20.23
2022-08-21T18:27:44.159Z,21.77
2022-08-21T18:30:19.148Z,18.85
2022-08-21T18:32:49.446Z,19.45
2022-08-21T18:35:17.643Z,21.42
2022-08-21T18:37:47.333Z,15.77
2022-08-21T18:40:16.884Z,20.45
2022-08-21T18:42:55.304Z,14.90
2022-08-21T18:45:23.481Z,12.70
2022-08-21T18:47:55.488Z,12.95
2022-08-21T18:50:29.167Z,12.13
2022-08-21T18:52:56.895Z,19.60
2022-08-21T18:55:24.946Z,14.32
2022-08-21T18:58:02.045Z,11.65
2022-08-21T19:00:38.029Z,19.63
2022-08-21T19:03:16.046Z,11.80
2022-08-21T19:05:54.949Z,12.65
2022-08-21T19:08:28.743Z,14.80
2022-08-21T19:10:58.379Z,12.87
2022-08-21T19:13:28.529Z,12.93
2022-08-21T19:16:05.148Z,13.90
2022-08-21T19:18:35.589Z,13.30
2022-08-21T19:21:03.807Z,11.73
2022-08-21T19:23:36.003Z,12.82
2022-08-21T19:26:12.630Z,12.80
2022-08-21T19:28:51.462Z,13.65
2022-08-21T19:31:23.581Z,11.63
2022-08-21T19:34:03.482Z,12.13
2022-08-21T19:36:34.001Z,10.98
2022-08-21T19:39:07.273Z,18.98
2022-08-21T19:44:37.051Z,12.65
2022-08-21T19:47:18.924Z,15.45
2022-08-21T19:49:56.595Z,13.25
2022-08-21T19:52:27.394Z,14.98
2022-08-21T19:54:54.763Z,15.98
2022-08-21T19:57:22.480Z,13.98
2022-08-21T19:59:54.912Z,16.80
2022-08-21T20:02:28.139Z,16.65
2022-08-21T20:04:57.987Z,12.30
2022-08-21T20:07:27.187Z,14.90
2022-08-21T20:10:02.550Z,13.25
2022-08-21T20:12:35.090Z,12.95
2022-08-21T20:15:08.150Z,15.55
2022-08-21T20:17:35.750Z,12.77
2022-08-21T20:20:04.277Z,12.98
2022-08-21T20:22:33.876Z,14.82
2022-08-21T20:25:01.262Z,14.23
2022-08-21T20:27:31.671Z,19.30
2022-08-21T20:30:08.857Z,15.57
2022-08-21T20:32:36.357Z,17.67
2022-08-21T20:35:05.628Z,17.35
2022-08-21T20:37:42.218Z,19.80
2022-08-21T20:40:14.043Z,20.15
2022-08-21T20:42:47.436Z,17.88
2022-08-21T20:45:23.896Z,18.50
2022-08-21T20:48:11.465Z,16.55
2022-08-21T20:50:49.227Z,17.27
2022-08-21T20:53:22.472Z,17.40
2022-08-21T20:55:53.294Z,17.08
2022-08-21T20:58:33.364Z,18.65
2022-08-21T21:01:08.993Z,18.10
2022-08-21T21:03:36.123Z,17.80
2022-08-21T21:06:07.875Z,23.67
2022-08-21T21:09:03.645Z,24.55
2022-08-21T21:11:58.847Z,25.13
2022-08-21T21:14:54.305Z,24.95
2022-08-21T21:17:30.223Z,24.98
2022-08-21T21:20:06.964Z,24.27
2022-08-21T21:23:04.993Z,25.20
2022-08-21T21:25:49.309Z,28.15
2022-08-21T21:29:01.682Z,27.33
2022-08-21T21:31:35.696Z,26.83
2022-08-21T21:34:03.325Z,25.83
2022-08-21T21:36:51.453Z,28.05
2022-08-21T21:39:36.658Z,26.80
2022-08-21T21:42:17.484Z,23.40
2022-08-21T21:45:11.410Z,24.00
2022-08-21T21:47:56.843Z,23.23
2022-08-21T21:50:42.859Z,22.38
2022-08-21T21:53:31.934Z,21.75
2022-08-21T21:56:29.267Z,22.10
2022-08-21T21:59:12.964Z,21.88
2022-08-21T22:02:01.398Z,19.45
2022-08-21T22:04:46.900Z,19.10
2022-08-21T22:07:29.739Z,24.80
2022-08-21T22:10:43.000Z,21.10
2022-08-21T22:13:31.228Z,19.67
2022-08-21T22:16:09.114Z,20.33
2022-08-21T22:18:45.183Z,17.08
2022-08-21T22:21:15.297Z,15.93
2022-08-21T22:23:48.793Z,15.93
2022-08-21T22:26:25.657Z,16.58
2022-08-21T22:29:00.370Z,14.50
2022-08-21T22:31:36.084Z,19.70
2022-08-21T22:34:17.918Z,12.82
2022-08-21T22:36:59.485Z,12.98
2022-08-21T22:42:27.470Z,12.98
2022-08-21T22:44:58.314Z,15.40
2022-08-21T22:47:39.141Z,13.38
2022-08-21T22:50:27.177Z,12.40
2022-08-21T22:53:00.035Z,14.63
2022-08-21T22:55:54.805Z,10.20
2022-08-21T22:58:29.312Z,11.23
2022-08-21T23:01:33.348Z,21.63
2022-08-21T23:04:22.048Z,14.77
2022-08-21T23:06:56.239Z,11.27
2022-08-21T23:10:00.197Z,13.80
2022-08-21T23:12:39.757Z,10.80
2022-08-21T23:15:12.959Z,9.82
2022-08-21T23:18:13.532Z,12.85
2022-08-21T23:20:55.609Z,12.90
2022-08-21T23:23:34.935Z,11.93
2022-08-21T23:26:33.492Z,13.73
2022-08-21T23:29:09.910Z,10.13
2022-08-21T23:32:08.061Z,14.65
2022-08-21T23:34:43.300Z,11.65
2022-08-21T23:37:48.767Z,16.67
2022-08-21T23:40:27.904Z,11.63
2022-08-21T23:43:19.086Z,17.13
2022-08-21T23:46:18.919Z,14.35
2022-08-21T23:49:17.709Z,11.93
2022-08-21T23:52:15.858Z,15.43
2022-08-21T23:54:56.545Z,13.93
2022-08-21T23:57:42.642Z,20.13
